createdAt,value
2022-09-28T00:01:17.571Z,14.80
2022-09-28T00:03:46.133Z,14.90
2022-09-28T00:06:16.092Z,14.94
2022-09-28T00:08:44.149Z,14.89
2022-09-28T00:11:15.318Z,14.77
2022-09-28T00:13:46.103Z,14.95
2022-09-28T00:16:16.898Z,14.93
2022-09-28T00:18:45.713Z,15.05
2022-09-28T00:21:16.272Z,15.08
2022-09-28T00:23:59.001Z,15.07
2022-09-28T00:26:27.735Z,15.11
2022-09-28T00:28:59.226Z,14.92
2022-09-28T00:31:29.426Z,14.79
2022-09-28T00:33:57.847Z,14.85
2022-09-28T00:36:27.059Z,14.86
2022-09-28T00:38:56.413Z,14.88
2022-09-28T00:41:24.765Z,14.90
2022-09-28T00:43:52.844Z,15.03
2022-09-28T00:46:31.624Z,15.11
2022-09-28T00:49:04.324Z,14.98
2022-09-28T00:51:33.530Z,14.92
2022-09-28T00:54:04.917Z,15.06
2022-09-28T00:56:36.227Z,15.01
2022-09-28T00:59:05.616Z,15.00
2022-09-28T01:01:34.941Z,15.17
2022-09-28T01:04:04.977Z,15.14
2022-09-28T01:06:35.969Z,15.18
2022-09-28T01:09:07.913Z,15.19
2022-09-28T01:11:39.329Z,15.29
2022-09-28T01:14:12.429Z,15.37
2022-09-28T01:16:48.132Z,15.33
2022-09-28T01:19:33.795Z,15.39
2022-09-28T01:22:21.321Z,15.52
2022-09-28T01:24:53.539Z,15.26
2022-09-28T01:27:29.195Z,15.35
2022-09-28T01:30:04.481Z,15.48
2022-09-28T01:32:44.279Z,15.40
2022-09-28T01:35:17.345Z,15.37
2022-09-28T01:37:52.138Z,15.53
2022-09-28T01:40:23.482Z,15.47
2022-09-28T01:42:57.187Z,15.33
2022-09-28T01:45:31.313Z,15.37
2022-09-28T01:48:04.542Z,15.35
2022-09-28T01:50:40.081Z,15.51
2022-09-28T01:53:13.607Z,15.13
2022-09-28T01:55:46.204Z,14.99
2022-09-28T01:58:22.887Z,14.97
2022-09-28T02:01:01.522Z,15.06
2022-09-28T02:03:36.023Z,15.14
2022-09-28T02:06:09.734Z,15.09
2022-09-28T02:08:41.420Z,14.98
2022-09-28T02:11:15.337Z,15.12
2022-09-28T02:13:49.765Z,15.10
2022-09-28T02:16:22.835Z,14.84
2022-09-28T02:18:52.242Z,14.79
2022-09-28T02:21:27.660Z,15.08
2022-09-28T02:24:01.118Z,15.01
2022-09-28T02:26:33.546Z,14.92
2022-09-28T02:29:03.353Z,15.03
2022-09-28T02:31:33.118Z,14.99
2022-09-28T02:34:01.347Z,15.05
2022-09-28T02:36:30.809Z,15.14
2022-09-28T02:39:01.197Z,15.28
2022-09-28T02:41:43.003Z,15.13
2022-09-28T02:44:22.435Z,14.93
2022-09-28T02:46:58.491Z,14.99
2022-09-28T02:49:38.691Z,14.91
2022-09-28T02:52:20.718Z,14.96
2022-09-28T02:55:02.740Z,15.12
2022-09-28T02:57:43.604Z,15.10
2022-09-28T03:00:19.507Z,15.12
2022-09-28T03:02:56.884Z,15.08
2022-09-28T03:05:35.628Z,15.05
2022-09-28T03:08:08.104Z,15.07
2022-09-28T03:10:41.020Z,15.14
2022-09-28T03:13:12.486Z,15.10
2022-09-28T03:15:46.448Z,15.07
2022-09-28T03:18:16.571Z,15.25
2022-09-28T03:20:44.548Z,15.25
2022-09-28T03:23:24.307Z,15.23
2022-09-28T03:25:52.954Z,15.22
2022-09-28T03:28:21.378Z,15.20
2022-09-28T03:30:51.085Z,15.16
2022-09-28T03:33:19.903Z,15.21
2022-09-28T03:35:49.058Z,15.31
2022-09-28T03:38:18.137Z,15.23
2022-09-28T03:40:46.444Z,15.26
2022-09-28T03:43:14.392Z,15.32
2022-09-28T03:45:42.308Z,15.33
2022-09-28T03:48:11.718Z,15.20
2022-09-28T03:50:39.640Z,15.28
2022-09-28T03:53:07.784Z,15.34
2022-09-28T03:55:35.696Z,15.47
2022-09-28T03:58:03.687Z,15.36
2022-09-28T04:00:31.588Z,15.46
2022-09-28T04:02:59.475Z,15.33
2022-09-28T04:05:28.941Z,15.28
2022-09-28T04:07:57.855Z,15.27
2022-09-28T04:10:26.346Z,15.29
2022-09-28T04:12:56.144Z,15.37
2022-09-28T04:15:24.418Z,15.47
2022-09-28T04:17:52.946Z,15.55
2022-09-28T04:20:21.121Z,15.58
2022-09-28T04:22:50.403Z,15.65
2022-09-28T04:25:18.449Z,15.68
2022-09-28T04:28:18.197Z,15.69
2022-09-28T04:30:47.886Z,15.44
2022-09-28T04:33:15.786Z,15.65
2022-09-28T04:35:43.753Z,15.68
2022-09-28T04:38:13.027Z,15.72
2022-09-28T04:40:41.000Z,15.73
2022-09-28T04:43:09.495Z,15.60
2022-09-28T04:45:37.711Z,15.37
2022-09-28T04:48:08.612Z,15.49
2022-09-28T04:50:36.492Z,15.49
2022-09-28T04:53:05.597Z,15.62
2022-09-28T04:55:34.894Z,15.57
2022-09-28T04:58:05.216Z,15.52
2022-09-28T05:00:36.088Z,15.31
2022-09-28T05:03:04.002Z,15.18
2022-09-28T05:05:31.938Z,15.05
2022-09-28T05:08:00.262Z,15.08
2022-09-28T05:10:30.749Z,15.19
2022-09-28T05:13:00.015Z,15.35
2022-09-28T05:15:28.060Z,15.33
2022-09-28T05:17:55.951Z,15.41
2022-09-28T05:20:23.874Z,15.53
2022-09-28T05:22:51.780Z,15.53
2022-09-28T05:25:23.053Z,15.51
2022-09-28T05:27:57.078Z,15.37
2022-09-28T05:30:26.418Z,15.25
2022-09-28T05:32:54.325Z,15.31
2022-09-28T05:35:22.496Z,15.43
2022-09-28T05:37:50.520Z,15.38
2022-09-28T05:40:18.953Z,15.42
2022-09-28T05:42:46.902Z,15.52
2022-09-28T05:45:15.062Z,15.54
2022-09-28T05:47:46.199Z,15.48
2022-09-28T05:50:16.070Z,15.38
2022-09-28T05:52:44.594Z,15.34
2022-09-28T05:55:12.539Z,15.22
2022-09-28T05:57:40.454Z,15.23
2022-09-28T06:00:09.572Z,15.15
2022-09-28T06:02:37.760Z,15.14
2022-09-28T06:05:07.767Z,15.25
2022-09-28T06:07:35.679Z,15.31
2022-09-28T06:10:03.635Z,15.26
2022-09-28T06:12:31.577Z,15.28
2022-09-28T06:15:01.278Z,15.14
2022-09-28T06:17:29.270Z,15.03
2022-09-28T06:19:57.166Z,15.02
2022-09-28T06:22:27.234Z,15.23
2022-09-28T06:24:55.311Z,15.20
2022-09-28T06:27:23.222Z,15.48
2022-09-28T06:29:51.113Z,15.50
2022-09-28T06:32:19.389Z,15.43
2022-09-28T06:34:47.309Z,15.50
2022-09-28T06:37:15.317Z,15.34
2022-09-28T06:39:44.599Z,15.35
2022-09-28T06:42:12.505Z,15.24
2022-09-28T06:44:40.420Z,15.21
2022-09-28T06:47:08.314Z,14.93
2022-09-28T06:49:36.235Z,14.81
2022-09-28T06:52:04.136Z,14.77
2022-09-28T06:54:32.035Z,14.83
2022-09-28T06:57:01.306Z,14.91
2022-09-28T06:59:29.941Z,15.13
2022-09-28T07:01:57.906Z,15.21
2022-09-28T07:04:25.925Z,15.38
2022-09-28T07:06:54.289Z,15.33
2022-09-28T07:09:32.275Z,15.61
2022-09-28T07:12:04.936Z,15.42
2022-09-28T07:14:47.402Z,15.65
2022-09-28T07:17:16.228Z,15.73
2022-09-28T07:19:44.525Z,15.82
2022-09-28T07:22:18.979Z,15.83
2022-09-28T07:24:49.072Z,15.67
2022-09-28T07:27:18.370Z,15.82
2022-09-28T07:29:46.263Z,15.73
2022-09-28T07:32:14.477Z,15.83
2022-09-28T07:34:43.788Z,15.78
2022-09-28T07:37:13.407Z,15.91
2022-09-28T07:39:55.239Z,15.86
2022-09-28T07:42:24.863Z,15.84
2022-09-28T07:44:52.777Z,15.98
2022-09-28T07:47:30.913Z,16.06
2022-09-28T07:50:01.072Z,16.24
2022-09-28T07:52:29.423Z,15.92
2022-09-28T07:54:57.479Z,16.06
2022-09-28T07:57:26.764Z,16.29
2022-09-28T07:59:54.892Z,16.29
2022-09-28T08:02:23.200Z,16.29
2022-09-28T08:04:51.385Z,16.33
2022-09-28T08:07:23.622Z,16.65
2022-09-28T08:09:52.043Z,16.76
2022-09-28T08:12:21.187Z,16.67
2022-09-28T08:14:52.213Z,16.74
2022-09-28T08:17:20.314Z,16.86
2022-09-28T08:20:05.371Z,16.85
2022-09-28T08:22:33.427Z,16.97
2022-09-28T08:25:01.324Z,17.01
2022-09-28T08:27:29.350Z,17.01
2022-09-28T08:29:58.879Z,17.27
2022-09-28T08:32:27.043Z,17.32
2022-09-28T08:34:56.080Z,17.33
2022-09-28T08:37:24.022Z,17.16
2022-09-28T08:39:51.953Z,17.19
2022-09-28T08:42:34.835Z,17.15
2022-09-28T08:45:10.429Z,17.08
2022-09-28T08:48:04.387Z,17.23
2022-09-28T08:50:34.571Z,17.16
2022-09-28T08:53:11.415Z,17.35
2022-09-28T08:55:45.331Z,17.41
2022-09-28T08:58:16.286Z,17.72
2022-09-28T09:00:48.710Z,17.53
2022-09-28T09:03:19.603Z,17.40
2022-09-28T09:05:57.810Z,17.72
2022-09-28T09:08:37.431Z,17.92
2022-09-28T09:11:16.967Z,18.18
2022-09-28T09:14:04.035Z,18.03
2022-09-28T09:16:43.032Z,18.17
2022-09-28T09:19:17.642Z,18.18
2022-09-28T09:21:51.168Z,18.13
2022-09-28T09:24:27.471Z,17.98
2022-09-28T09:27:06.953Z,18.25
2022-09-28T09:29:49.436Z,18.38
2022-09-28T09:32:40.237Z,18.45
2022-09-28T09:35:38.317Z,17.92
2022-09-28T09:38:22.105Z,17.66
2022-09-28T09:41:06.676Z,17.70
2022-09-28T09:43:53.588Z,17.47
2022-09-28T09:46:29.533Z,17.45
2022-09-28T09:49:06.492Z,17.82
2022-09-28T09:51:42.958Z,17.48
2022-09-28T09:54:19.644Z,17.86
2022-09-28T09:56:55.041Z,17.72
2022-09-28T09:59:28.753Z,17.79
2022-09-28T10:01:57.211Z,18.07
2022-09-28T10:04:30.579Z,17.88
2022-09-28T10:07:02.944Z,17.98
2022-09-28T10:09:37.158Z,17.74
2022-09-28T10:12:05.345Z,18.07
2022-09-28T10:14:33.275Z,17.99
2022-09-28T10:17:04.050Z,17.90
2022-09-28T10:19:35.357Z,17.90
2022-09-28T10:22:06.955Z,17.80
2022-09-28T10:24:39.785Z,17.60
2022-09-28T10:27:12.518Z,17.50
2022-09-28T10:29:51.877Z,17.33
2022-09-28T10:32:23.080Z,16.76
2022-09-28T10:34:55.017Z,16.90
2022-09-28T10:37:24.417Z,16.90
2022-09-28T10:39:54.359Z,16.61
2022-09-28T10:42:24.460Z,16.64
2022-09-28T10:44:56.642Z,17.17
2022-09-28T10:47:26.510Z,17.14
2022-09-28T10:49:57.604Z,17.18
2022-09-28T10:52:39.861Z,17.44
2022-09-28T10:55:32.433Z,17.29
2022-09-28T10:58:01.217Z,17.19
2022-09-28T11:00:35.581Z,17.29
2022-09-28T11:03:04.075Z,17.33
2022-09-28T11:05:33.763Z,17.11
2022-09-28T11:08:07.456Z,17.14
2022-09-28T11:10:37.894Z,17.39
2022-09-28T11:13:10.754Z,16.95
2022-09-28T11:15:44.523Z,16.95
2022-09-28T11:18:28.237Z,16.86
2022-09-28T11:21:12.939Z,16.70
2022-09-28T11:23:42.161Z,16.74
2022-09-28T11:26:17.684Z,17.21
2022-09-28T11:28:52.077Z,17.39
2022-09-28T11:31:27.179Z,17.25
2022-09-28T11:34:06.286Z,17.29
2022-09-28T11:36:56.459Z,17.34
2022-09-28T11:39:36.121Z,17.21
2022-09-28T11:42:16.496Z,17.11
2022-09-28T11:44:47.034Z,16.91
2022-09-28T11:47:43.108Z,17.22
2022-09-28T11:50:24.269Z,17.36
2022-09-28T11:53:02.898Z,17.15
2022-09-28T11:55:36.708Z,17.02
2022-09-28T11:58:11.463Z,17.05
2022-09-28T12:00:44.802Z,17.29
2022-09-28T12:03:18.111Z,17.39
2022-09-28T12:05:50.966Z,17.35
2022-09-28T12:08:27.526Z,17.29
2022-09-28T12:11:00.427Z,17.37
2022-09-28T12:13:31.302Z,17.35
2022-09-28T12:16:37.548Z,17.53
2022-09-28T12:18:54.664Z,17.56
2022-09-28T12:21:35.784Z,17.96
2022-09-28T12:24:13.613Z,18.06
2022-09-28T12:26:48.459Z,17.95
2022-09-28T12:29:21.168Z,17.39
2022-09-28T12:31:59.608Z,17.16
2022-09-28T12:34:27.927Z,17.17
2022-09-28T12:37:33.328Z,17.23
2022-09-28T12:40:23.996Z,17.27
2022-09-28T12:43:20.089Z,17.11
2022-09-28T12:46:12.425Z,16.84
2022-09-28T12:49:33.106Z,16.80
2022-09-28T12:51:50.076Z,16.38
2022-09-28T12:54:47.525Z,16.20
2022-09-28T12:57:36.075Z,16.17
2022-09-28T13:00:07.264Z,16.08
2022-09-28T13:03:18.528Z,16.25
2022-09-28T13:06:26.892Z,16.33
2022-09-28T13:09:11.023Z,16.27
2022-09-28T13:11:49.276Z,16.23
2022-09-28T13:14:52.836Z,16.19
2022-09-28T13:17:39.926Z,16.27
2022-09-28T13:20:18.706Z,16.38
2022-09-28T13:22:53.740Z,16.49
2022-09-28T13:25:25.324Z,16.61
2022-09-28T13:27:57.895Z,16.43
2022-09-28T13:30:27.581Z,16.42
2022-09-28T13:32:59.044Z,16.57
2022-09-28T13:35:27.542Z,16.60
2022-09-28T13:38:28.669Z,16.70
2022-09-28T13:41:13.490Z,16.56
2022-09-28T13:44:02.854Z,16.50
2022-09-28T13:46:42.372Z,16.57
2022-09-28T13:49:18.656Z,16.27
2022-09-28T13:52:00.952Z,16.20
2022-09-28T13:54:46.411Z,16.01
2022-09-28T13:57:25.292Z,15.57
2022-09-28T14:00:03.848Z,15.47
2022-09-28T14:02:38.673Z,15.23
2022-09-28T14:05:49.010Z,14.99
2022-09-28T14:08:38.516Z,14.99
2022-09-28T14:11:42.039Z,15.04
2022-09-28T14:14:51.570Z,15.31
2022-09-28T14:18:08.818Z,15.44
2022-09-28T14:20:38.025Z,15.46
2022-09-28T14:23:31.496Z,15.27
2022-09-28T14:26:21.741Z,15.10
2022-09-28T14:28:58.248Z,15.18
2022-09-28T14:31:28.491Z,15.02
2022-09-28T14:34:01.281Z,14.93
2022-09-28T14:36:55.468Z,15.24
2022-09-28T14:39:47.006Z,15.42
2022-09-28T14:42:17.921Z,15.53
2022-09-28T14:45:19.142Z,15.73
2022-09-28T14:48:12.845Z,15.60
2022-09-28T14:50:42.509Z,15.32
2022-09-28T14:53:19.602Z,15.43
2022-09-28T14:55:51.062Z,15.27
2022-09-28T14:58:23.529Z,15.36
2022-09-28T15:00:57.754Z,15.20
2022-09-28T15:03:27.541Z,15.04
2022-09-28T15:05:56.974Z,15.05
2022-09-28T15:08:36.189Z,15.08
2022-09-28T15:11:04.264Z,15.23
2022-09-28T15:13:32.244Z,15.41
2022-09-28T15:16:05.498Z,15.58
2022-09-28T15:19:04.066Z,15.88
2022-09-28T15:21:39.064Z,16.20
2022-09-28T15:24:24.879Z,16.20
2022-09-28T15:26:53.233Z,16.15
2022-09-28T15:29:23.076Z,16.04
2022-09-28T15:31:54.462Z,15.82
2022-09-28T15:34:47.974Z,16.13
2022-09-28T15:37:22.172Z,16.36
2022-09-28T15:39:51.641Z,16.41
2022-09-28T15:42:20.432Z,16.30
2022-09-28T15:45:22.216Z,16.58
2022-09-28T15:47:50.308Z,16.48
2022-09-28T15:50:24.092Z,16.64
2022-09-28T15:53:00.821Z,16.74
2022-09-28T15:55:31.808Z,16.68
2022-09-28T15:58:08.862Z,16.70
2022-09-28T16:00:37.084Z,16.50
2022-09-28T16:03:21.629Z,16.58
2022-09-28T16:05:52.179Z,16.50
2022-09-28T16:08:24.855Z,16.45
2022-09-28T16:11:07.981Z,16.38
2022-09-28T16:13:37.081Z,16.37
2022-09-28T16:16:05.093Z,16.42
2022-09-28T16:18:36.932Z,16.25
2022-09-28T16:21:26.132Z,16.57
2022-09-28T16:23:57.679Z,16.77
2022-09-28T16:26:33.420Z,16.51
2022-09-28T16:29:07.397Z,16.43
2022-09-28T16:31:37.770Z,16.34
2022-09-28T16:34:21.343Z,16.36
2022-09-28T16:36:51.030Z,16.51
2022-09-28T16:39:20.857Z,16.28
2022-09-28T16:41:51.797Z,16.24
2022-09-28T16:44:26.111Z,15.97
2022-09-28T16:46:56.968Z,15.91
2022-09-28T16:49:28.316Z,15.99
2022-09-28T16:51:56.219Z,15.75
2022-09-28T16:54:43.781Z,15.63
2022-09-28T16:57:14.039Z,15.50
2022-09-28T16:59:42.125Z,15.37
2022-09-28T17:02:42.250Z,15.38
2022-09-28T17:05:07.579Z,15.50
2022-09-28T17:07:38.311Z,15.71
2022-09-28T17:10:17.471Z,15.51
2022-09-28T17:12:45.410Z,15.48
2022-09-28T17:15:15.672Z,15.49
2022-09-28T17:17:43.581Z,15.34
2022-09-28T17:20:20.439Z,15.28
2022-09-28T17:22:48.344Z,15.24
2022-09-28T17:25:18.576Z,15.44
2022-09-28T17:27:48.858Z,15.43
2022-09-28T17:30:17.340Z,15.57
2022-09-28T17:32:47.207Z,15.34
2022-09-28T17:35:25.336Z,15.34
2022-09-28T17:37:53.821Z,15.19
2022-09-28T17:40:28.781Z,15.31
2022-09-28T17:42:57.821Z,15.23
2022-09-28T17:45:27.005Z,15.31
2022-09-28T17:47:55.065Z,15.11
2022-09-28T17:50:25.873Z,15.09
2022-09-28T17:52:54.696Z,14.93
2022-09-28T17:55:31.701Z,14.95
2022-09-28T17:58:03.288Z,15.03
2022-09-28T18:00:34.271Z,14.99
2022-09-28T18:03:02.208Z,15.09
2022-09-28T18:05:30.635Z,15.10
2022-09-28T18:07:59.273Z,15.00
2022-09-28T18:10:30.859Z,14.95
2022-09-28T18:12:58.912Z,14.78
2022-09-28T18:15:26.929Z,14.83
2022-09-28T18:17:54.911Z,14.86
2022-09-28T18:20:22.915Z,14.86
2022-09-28T18:22:50.807Z,14.68
2022-09-28T18:25:18.794Z,14.70
2022-09-28T18:27:48.068Z,14.62
2022-09-28T18:30:16.013Z,14.74
2022-09-28T18:32:43.913Z,14.68
2022-09-28T18:35:12.052Z,14.74
2022-09-28T18:37:41.293Z,14.65
2022-09-28T18:40:10.817Z,14.53
2022-09-28T18:42:38.705Z,14.49
2022-09-28T18:45:11.894Z,14.61
2022-09-28T18:47:40.116Z,14.64
2022-09-28T18:50:08.989Z,14.70
2022-09-28T18:52:37.581Z,14.62
2022-09-28T18:55:07.616Z,14.49
2022-09-28T18:57:36.472Z,14.48
2022-09-28T19:00:08.678Z,14.56
2022-09-28T19:02:37.623Z,14.68
2022-09-28T19:05:06.815Z,14.45
2022-09-28T19:07:35.366Z,14.15
2022-09-28T19:10:03.473Z,14.06
2022-09-28T19:12:31.385Z,14.20
2022-09-28T19:15:00.616Z,14.42
2022-09-28T19:17:30.019Z,14.42
2022-09-28T19:19:57.903Z,14.28
2022-09-28T19:22:25.947Z,14.14
2022-09-28T19:24:53.905Z,14.21
2022-09-28T19:27:21.825Z,14.35
2022-09-28T19:29:50.678Z,14.20
2022-09-28T19:32:18.574Z,14.26
2022-09-28T19:34:48.713Z,14.28
2022-09-28T19:37:17.980Z,14.16
2022-09-28T19:39:46.505Z,14.31
2022-09-28T19:42:14.413Z,14.13
2022-09-28T19:44:42.563Z,14.05
2022-09-28T19:47:11.676Z,14.03
2022-09-28T19:49:41.053Z,13.97
2022-09-28T19:52:16.618Z,14.05
2022-09-28T19:54:54.491Z,14.15
2022-09-28T19:57:22.877Z,13.97
2022-09-28T19:59:52.805Z,14.11
2022-09-28T20:02:22.382Z,14.17
2022-09-28T20:04:50.446Z,14.20
2022-09-28T20:07:19.780Z,14.27
2022-09-28T20:09:47.863Z,14.15
2022-09-28T20:12:15.890Z,14.18
2022-09-28T20:14:44.260Z,14.02
2022-09-28T20:17:12.149Z,14.00
2022-09-28T20:19:40.072Z,14.19
2022-09-28T20:22:08.131Z,14.39
2022-09-28T20:24:37.708Z,14.48
2022-09-28T20:27:05.655Z,14.64
2022-09-28T20:29:33.790Z,14.70
2022-09-28T20:32:04.083Z,14.57
2022-09-28T20:34:33.680Z,14.69
2022-09-28T20:37:01.761Z,14.62
2022-09-28T20:39:29.730Z,14.70
2022-09-28T20:41:59.090Z,14.76
2022-09-28T20:44:27.090Z,14.75
2022-09-28T20:46:56.688Z,14.68
2022-09-28T20:49:24.672Z,14.37
2022-09-28T20:51:52.579Z,14.00
2022-09-28T20:54:21.752Z,14.14
2022-09-28T20:56:49.804Z,14.04
2022-09-28T20:59:20.296Z,14.32
2022-09-28T21:01:48.347Z,13.91
2022-09-28T21:04:16.634Z,14.08
2022-09-28T21:06:44.654Z,14.07
2022-09-28T21:09:16.353Z,14.13
2022-09-28T21:11:44.246Z,14.03
2022-09-28T21:14:12.201Z,14.27
2022-09-28T21:16:44.793Z,14.41
2022-09-28T21:19:12.682Z,14.34
2022-09-28T21:21:43.220Z,14.27
2022-09-28T21:24:11.304Z,14.36
2022-09-28T21:26:39.289Z,14.19
2022-09-28T21:29:15.040Z,14.26
2022-09-28T21:31:46.736Z,13.97
2022-09-28T21:34:21.654Z,14.09
2022-09-28T21:36:51.325Z,14.29
2022-09-28T21:39:20.278Z,14.24
2022-09-28T21:41:48.201Z,14.32
2022-09-28T21:44:16.098Z,14.30
2022-09-28T21:46:45.932Z,14.47
2022-09-28T21:49:14.441Z,14.51
2022-09-28T21:51:42.367Z,14.53
2022-09-28T21:54:11.991Z,14.49
2022-09-28T21:56:40.147Z,14.42
2022-09-28T21:59:08.055Z,14.25
2022-09-28T22:01:36.014Z,14.41
2022-09-28T22:04:05.920Z,14.61
2022-09-28T22:06:36.170Z,14.73
2022-09-28T22:09:05.404Z,14.72
2022-09-28T22:11:33.392Z,14.83
2022-09-28T22:14:01.539Z,14.74
2022-09-28T22:16:31.308Z,14.75
2022-09-28T22:19:00.504Z,14.79
2022-09-28T22:21:31.864Z,14.84
2022-09-28T22:24:02.023Z,14.90
2022-09-28T22:26:32.061Z,14.72
2022-09-28T22:29:01.340Z,14.65
2022-09-28T22:31:34.153Z,14.37
2022-09-28T22:34:02.638Z,14.17
2022-09-28T22:36:32.152Z,14.13
2022-09-28T22:39:00.444Z,14.18
2022-09-28T22:41:28.867Z,14.30
2022-09-28T22:43:57.751Z,14.40
2022-09-28T22:46:28.100Z,14.49
2022-09-28T22:48:57.646Z,14.63
2022-09-28T22:51:28.155Z,14.39
2022-09-28T22:53:58.113Z,14.31
2022-09-28T22:56:26.583Z,14.14
2022-09-28T22:58:57.129Z,14.26
2022-09-28T23:01:27.005Z,14.06
2022-09-28T23:04:00.965Z,14.20
2022-09-28T23:06:30.397Z,14.24
2022-09-28T23:09:00.502Z,14.37
2022-09-28T23:11:29.450Z,14.15
2022-09-28T23:13:58.957Z,14.15
2022-09-28T23:16:27.662Z,14.10
2022-09-28T23:18:56.970Z,13.99
2022-09-28T23:21:26.950Z,13.96
2022-09-28T23:23:56.687Z,13.84
2022-09-28T23:26:27.777Z,13.98
2022-09-28T23:28:56.068Z,14.13
2022-09-28T23:31:25.749Z,14.34
2022-09-28T23:33:57.752Z,14.37
2022-09-28T23:36:25.719Z,14.32
2022-09-28T23:38:53.773Z,14.31
2022-09-28T23:41:21.691Z,14.30
2022-09-28T23:43:51.172Z,14.29
2022-09-28T23:46:21.044Z,14.16
2022-09-28T23:48:49.363Z,14.07
2022-09-28T23:51:20.157Z,14.06
2022-09-28T23:53:48.179Z,13.98
2022-09-28T23:56:16.157Z,13.94
2022-09-28T23:58:44.157Z,14.07
